sensor_id;sensor_type;location;lat;lon;timestamp;temperature;humidity
62581;DHT22;48640;48.770;9.148;2022-10-16T00:01:15;16.50;99.90
62581;DHT22;48640;48.770;9.148;2022-10-16T00:03:43;16.50;99.90
62581;DHT22;48640;48.770;9.148;2022-10-16T00:06:12;16.60;99.90
62581;DHT22;48640;48.770;9.148;2022-10-16T00:08:40;16.50;99.90
62581;DHT22;48640;48.770;9.148;2022-10-16T00:11:08;16.50;99.90
62581;DHT22;48640;48.770;9.148;2022-10-16T00:13:38;16.40;99.90
62581;DHT22;48640;48.770;9.148;2022-10-16T00:16:05;16.30;99.90
62581;DHT22;48640;48.770;9.148;2022-10-16T00:18:33;16.30;99.90
62581;DHT22;48640;48.770;9.148;2022-10-16T00:21:02;16.20;99.90
62581;DHT22;48640;48.770;9.148;2022-10-16T00:23:32;16.20;99.90
62581;DHT22;48640;48.770;9.148;2022-10-16T00:28:31;16.10;99.90
62581;DHT22;48640;48.770;9.148;2022-10-16T00:31:03;16.10;99.90
62581;DHT22;48640;48.770;9.148;2022-10-16T00:33:29;16.10;99.90
62581;DHT22;48640;48.770;9.148;2022-10-16T00:35:57;16.10;99.90
62581;DHT22;48640;48.770;9.148;2022-10-16T00:38:24;16.10;99.90
62581;DHT22;48640;48.770;9.148;2022-10-16T00:40:51;16.20;99.90
62581;DHT22;48640;48.770;9.148;2022-10-16T00:43:37;16.20;99.90
62581;DHT22;48640;48.770;9.148;2022-10-16T00:46:13;16.10;99.90
62581;DHT22;48640;48.770;9.148;2022-10-16T00:48:43;16.10;99.90
62581;DHT22;48640;48.770;9.148;2022-10-16T00:51:11;16.00;99.90
62581;DHT22;48640;48.770;9.148;2022-10-16T00:53:38;16.00;99.90
62581;DHT22;48640;48.770;9.148;2022-10-16T00:56:06;16.00;99.90
62581;DHT22;48640;48.770;9.148;2022-10-16T00:58:33;16.10;99.90
62581;DHT22;48640;48.770;9.148;2022-10-16T01:00:59;16.00;99.90
62581;DHT22;48640;48.770;9.148;2022-10-16T01:03:30;16.10;99.90
62581;DHT22;48640;48.770;9.148;2022-10-16T01:06:09;16.20;99.90
62581;DHT22;48640;48.770;9.148;2022-10-16T01:08:47;16.20;99.90
62581;DHT22;48640;48.770;9.148;2022-10-16T01:11:22;16.20;99.90
62581;DHT22;48640;48.770;9.148;2022-10-16T01:13:54;16.30;99.90
62581;DHT22;48640;48.770;9.148;2022-10-16T01:16:29;16.20;99.90
62581;DHT22;48640;48.770;9.148;2022-10-16T01:19:06;16.20;99.90
62581;DHT22;48640;48.770;9.148;2022-10-16T01:21:38;16.20;99.90
62581;DHT22;48640;48.770;9.148;2022-10-16T01:24:11;16.30;99.90
62581;DHT22;48640;48.770;9.148;2022-10-16T01:27:00;16.30;99.90
62581;DHT22;48640;48.770;9.148;2022-10-16T01:29:31;16.30;99.90
62581;DHT22;48640;48.770;9.148;2022-10-16T01:32:00;16.30;99.90
62581;DHT22;48640;48.770;9.148;2022-10-16T01:34:32;16.30;99.90
62581;DHT22;48640;48.770;9.148;2022-10-16T01:37:04;16.30;99.90
62581;DHT22;48640;48.770;9.148;2022-10-16T01:39:34;16.20;99.90
62581;DHT22;48640;48.770;9.148;2022-10-16T01:42:07;16.20;99.90
62581;DHT22;48640;48.770;9.148;2022-10-16T01:44:36;16.20;99.90
62581;DHT22;48640;48.770;9.148;2022-10-16T01:47:04;16.30;99.90
62581;DHT22;48640;48.770;9.148;2022-10-16T01:49:34;16.20;99.90
62581;DHT22;48640;48.770;9.148;2022-10-16T01:52:06;16.20;99.90
62581;DHT22;48640;48.770;9.148;2022-10-16T01:54:36;16.30;99.90
62581;DHT22;48640;48.770;9.148;2022-10-16T01:57:06;16.30;99.90
62581;DHT22;48640;48.770;9.148;2022-10-16T01:59:39;16.40;99.90
62581;DHT22;48640;48.770;9.148;2022-10-16T02:02:07;16.40;99.90
62581;DHT22;48640;48.770;9.148;2022-10-16T02:04:39;16.40;99.90
62581;DHT22;48640;48.770;9.148;2022-10-16T02:07:07;16.40;99.90
62581;DHT22;48640;48.770;9.148;2022-10-16T02:09:35;16.50;99.90
62581;DHT22;48640;48.770;9.148;2022-10-16T02:12:08;16.50;99.90
62581;DHT22;48640;48.770;9.148;2022-10-16T02:14:38;16.50;99.90
62581;DHT22;48640;48.770;9.148;2022-10-16T02:17:10;16.50;99.90
62581;DHT22;48640;48.770;9.148;2022-10-16T02:19:38;16.50;99.90
62581;DHT22;48640;48.770;9.148;2022-10-16T02:22:09;16.50;99.90
62581;DHT22;48640;48.770;9.148;2022-10-16T02:24:41;16.70;99.90
62581;DHT22;48640;48.770;9.148;2022-10-16T02:27:13;16.60;99.90
62581;DHT22;48640;48.770;9.148;2022-10-16T02:29:47;16.60;99.90
62581;DHT22;48640;48.770;9.148;2022-10-16T02:32:17;16.60;99.90
62581;DHT22;48640;48.770;9.148;2022-10-16T02:34:47;16.60;99.90
62581;DHT22;48640;48.770;9.148;2022-10-16T02:37:15;16.50;99.90
62581;DHT22;48640;48.770;9.148;2022-10-16T02:39:43;16.50;99.90
62581;DHT22;48640;48.770;9.148;2022-10-16T02:42:12;16.50;99.90
62581;DHT22;48640;48.770;9.148;2022-10-16T02:44:39;16.50;99.90
62581;DHT22;48640;48.770;9.148;2022-10-16T02:47:06;16.50;99.90
62581;DHT22;48640;48.770;9.148;2022-10-16T02:49:32;16.40;99.90
62581;DHT22;48640;48.770;9.148;2022-10-16T02:51:59;16.50;99.90
62581;DHT22;48640;48.770;9.148;2022-10-16T02:54:26;16.40;99.90
62581;DHT22;48640;48.770;9.148;2022-10-16T02:56:53;16.40;99.90
62581;DHT22;48640;48.770;9.148;2022-10-16T02:59:21;16.30;99.90
62581;DHT22;48640;48.770;9.148;2022-10-16T03:01:48;16.30;99.90
62581;DHT22;48640;48.770;9.148;2022-10-16T03:04:14;16.30;99.90
62581;DHT22;48640;48.770;9.148;2022-10-16T03:06:41;16.30;99.90
62581;DHT22;48640;48.770;9.148;2022-10-16T03:09:08;16.30;99.90
62581;DHT22;48640;48.770;9.148;2022-10-16T03:11:35;16.30;99.90
62581;DHT22;48640;48.770;9.148;2022-10-16T03:14:01;16.40;99.90
62581;DHT22;48640;48.770;9.148;2022-10-16T03:16:30;16.30;99.90
62581;DHT22;48640;48.770;9.148;2022-10-16T03:18:56;16.30;99.90
62581;DHT22;48640;48.770;9.148;2022-10-16T03:21:23;16.20;99.90
62581;DHT22;48640;48.770;9.148;2022-10-16T03:23:50;16.30;99.90
62581;DHT22;48640;48.770;9.148;2022-10-16T03:26:17;16.20;99.90
62581;DHT22;48640;48.770;9.148;2022-10-16T03:28:43;16.30;99.90
62581;DHT22;48640;48.770;9.148;2022-10-16T03:31:10;16.30;99.90
62581;DHT22;48640;48.770;9.148;2022-10-16T03:33:38;16.20;99.90
62581;DHT22;48640;48.770;9.148;2022-10-16T03:36:05;16.40;99.90
62581;DHT22;48640;48.770;9.148;2022-10-16T03:38:33;16.30;99.90
62581;DHT22;48640;48.770;9.148;2022-10-16T03:41:00;16.30;99.90
62581;DHT22;48640;48.770;9.148;2022-10-16T03:43:29;16.20;99.90
62581;DHT22;48640;48.770;9.148;2022-10-16T03:45:56;16.20;99.90
62581;DHT22;48640;48.770;9.148;2022-10-16T03:48:22;16.10;99.90
62581;DHT22;48640;48.770;9.148;2022-10-16T03:50:51;16.10;99.90
62581;DHT22;48640;48.770;9.148;2022-10-16T03:53:18;16.10;99.90
62581;DHT22;48640;48.770;9.148;2022-10-16T03:55:45;16.00;99.90
62581;DHT22;48640;48.770;9.148;2022-10-16T03:58:12;16.00;99.90
62581;DHT22;48640;48.770;9.148;2022-10-16T04:00:40;16.10;99.90
62581;DHT22;48640;48.770;9.148;2022-10-16T04:03:07;16.00;99.90
62581;DHT22;48640;48.770;9.148;2022-10-16T04:05:33;16.00;99.90
62581;DHT22;48640;48.770;9.148;2022-10-16T04:08:02;16.10;99.90
62581;DHT22;48640;48.770;9.148;2022-10-16T04:10:29;16.10;99.90
62581;DHT22;48640;48.770;9.148;2022-10-16T04:12:56;16.10;99.90
62581;DHT22;48640;48.770;9.148;2022-10-16T04:15:24;16.10;99.90
62581;DHT22;48640;48.770;9.148;2022-10-16T04:17:51;16.10;99.90
62581;DHT22;48640;48.770;9.148;2022-10-16T04:20:18;16.10;99.90
62581;DHT22;48640;48.770;9.148;2022-10-16T04:22:44;16.10;99.90
62581;DHT22;48640;48.770;9.148;2022-10-16T04:25:13;16.10;99.90
62581;DHT22;48640;48.770;9.148;2022-10-16T04:27:40;16.20;99.90
62581;DHT22;48640;48.770;9.148;2022-10-16T04:30:07;16.20;99.90
62581;DHT22;48640;48.770;9.148;2022-10-16T04:32:34;16.10;99.90
62581;DHT22;48640;48.770;9.148;2022-10-16T04:35:01;16.10;99.90
62581;DHT22;48640;48.770;9.148;2022-10-16T04:37:28;16.10;99.90
62581;DHT22;48640;48.770;9.148;2022-10-16T04:39:55;16.20;99.90
62581;DHT22;48640;48.770;9.148;2022-10-16T04:42:23;16.10;99.90
62581;DHT22;48640;48.770;9.148;2022-10-16T04:44:50;16.10;99.90
62581;DHT22;48640;48.770;9.148;2022-10-16T04:47:16;16.00;99.90
62581;DHT22;48640;48.770;9.148;2022-10-16T04:49:43;16.00;99.90
62581;DHT22;48640;48.770;9.148;2022-10-16T04:52:10;16.00;99.90
62581;DHT22;48640;48.770;9.148;2022-10-16T04:54:37;16.10;99.90
62581;DHT22;48640;48.770;9.148;2022-10-16T04:57:03;16.10;99.90
62581;DHT22;48640;48.770;9.148;2022-10-16T04:59:32;16.10;99.90
62581;DHT22;48640;48.770;9.148;2022-10-16T05:01:59;16.10;99.90
62581;DHT22;48640;48.770;9.148;2022-10-16T05:04:26;16.00;99.90
62581;DHT22;48640;48.770;9.148;2022-10-16T05:06:52;16.00;99.90
62581;DHT22;48640;48.770;9.148;2022-10-16T05:09:19;16.00;99.90
62581;DHT22;48640;48.770;9.148;2022-10-16T05:11:46;16.10;99.90
62581;DHT22;48640;48.770;9.148;2022-10-16T05:14:13;16.20;99.90
62581;DHT22;48640;48.770;9.148;2022-10-16T05:16:41;16.20;99.90
62581;DHT22;48640;48.770;9.148;2022-10-16T05:19:07;16.30;99.90
62581;DHT22;48640;48.770;9.148;2022-10-16T05:21:34;16.30;99.90
62581;DHT22;48640;48.770;9.148;2022-10-16T05:24:01;16.20;99.90
62581;DHT22;48640;48.770;9.148;2022-10-16T05:26:28;16.20;99.90
62581;DHT22;48640;48.770;9.148;2022-10-16T05:28:55;16.10;99.90
62581;DHT22;48640;48.770;9.148;2022-10-16T05:31:21;16.20;99.90
62581;DHT22;48640;48.770;9.148;2022-10-16T05:33:49;16.20;99.90
62581;DHT22;48640;48.770;9.148;2022-10-16T05:36:16;16.10;99.90
62581;DHT22;48640;48.770;9.148;2022-10-16T05:38:43;16.10;99.90
62581;DHT22;48640;48.770;9.148;2022-10-16T05:41:11;16.00;99.90
62581;DHT22;48640;48.770;9.148;2022-10-16T05:43:38;16.00;99.90
62581;DHT22;48640;48.770;9.148;2022-10-16T05:46:05;16.00;99.90
62581;DHT22;48640;48.770;9.148;2022-10-16T05:48:32;16.00;99.90
62581;DHT22;48640;48.770;9.148;2022-10-16T05:51:02;16.00;99.90
62581;DHT22;48640;48.770;9.148;2022-10-16T05:53:30;16.00;99.90
62581;DHT22;48640;48.770;9.148;2022-10-16T05:55:58;16.10;99.90
62581;DHT22;48640;48.770;9.148;2022-10-16T05:58:28;16.10;99.90
62581;DHT22;48640;48.770;9.148;2022-10-16T06:00:56;16.20;99.90
62581;DHT22;48640;48.770;9.148;2022-10-16T06:03:23;16.10;99.90
62581;DHT22;48640;48.770;9.148;2022-10-16T06:05:50;16.10;99.90
62581;DHT22;48640;48.770;9.148;2022-10-16T06:08:20;16.10;99.90
62581;DHT22;48640;48.770;9.148;2022-10-16T06:10:47;16.20;99.90
62581;DHT22;48640;48.770;9.148;2022-10-16T06:13:15;16.20;99.90
62581;DHT22;48640;48.770;9.148;2022-10-16T06:15:42;16.20;99.90
62581;DHT22;48640;48.770;9.148;2022-10-16T06:18:09;16.20;99.90
62581;DHT22;48640;48.770;9.148;2022-10-16T06:20:36;16.20;99.90
62581;DHT22;48640;48.770;9.148;2022-10-16T06:23:03;16.30;99.90
62581;DHT22;48640;48.770;9.148;2022-10-16T06:25:32;16.30;99.90
62581;DHT22;48640;48.770;9.148;2022-10-16T06:27:58;16.30;99.90
62581;DHT22;48640;48.770;9.148;2022-10-16T06:30:25;16.40;99.90
62581;DHT22;48640;48.770;9.148;2022-10-16T06:32:52;16.40;99.90
62581;DHT22;48640;48.770;9.148;2022-10-16T06:35:19;16.40;99.90
62581;DHT22;48640;48.770;9.148;2022-10-16T06:37:46;16.40;99.90
62581;DHT22;48640;48.770;9.148;2022-10-16T06:40:12;16.50;99.90
62581;DHT22;48640;48.770;9.148;2022-10-16T06:42:41;16.60;99.90
62581;DHT22;48640;48.770;9.148;2022-10-16T06:45:09;16.70;99.90
62581;DHT22;48640;48.770;9.148;2022-10-16T06:47:36;16.70;99.90
62581;DHT22;48640;48.770;9.148;2022-10-16T06:50:03;16.80;99.90
62581;DHT22;48640;48.770;9.148;2022-10-16T06:52:32;16.80;99.90
62581;DHT22;48640;48.770;9.148;2022-10-16T06:54:59;16.80;99.90
62581;DHT22;48640;48.770;9.148;2022-10-16T06:57:26;16.80;99.90
62581;DHT22;48640;48.770;9.148;2022-10-16T06:59:54;16.80;99.90
62581;DHT22;48640;48.770;9.148;2022-10-16T07:02:21;16.80;99.90
62581;DHT22;48640;48.770;9.148;2022-10-16T07:04:48;16.70;99.90
62581;DHT22;48640;48.770;9.148;2022-10-16T07:07:15;16.70;99.90
62581;DHT22;48640;48.770;9.148;2022-10-16T07:09:41;16.80;99.90
62581;DHT22;48640;48.770;9.148;2022-10-16T07:12:08;16.90;99.90
62581;DHT22;48640;48.770;9.148;2022-10-16T07:14:35;16.90;99.90
62581;DHT22;48640;48.770;9.148;2022-10-16T07:17:03;17.10;99.90
62581;DHT22;48640;48.770;9.148;2022-10-16T07:19:30;17.20;99.90
62581;DHT22;48640;48.770;9.148;2022-10-16T07:21:57;17.30;99.90
62581;DHT22;48640;48.770;9.148;2022-10-16T07:24:23;17.30;99.90
62581;DHT22;48640;48.770;9.148;2022-10-16T07:26:50;17.20;99.90
62581;DHT22;48640;48.770;9.148;2022-10-16T07:29:19;17.30;99.90
62581;DHT22;48640;48.770;9.148;2022-10-16T07:31:46;17.20;99.90
62581;DHT22;48640;48.770;9.148;2022-10-16T07:34:17;17.20;99.90
62581;DHT22;48640;48.770;9.148;2022-10-16T07:36:44;17.20;99.90
62581;DHT22;48640;48.770;9.148;2022-10-16T07:39:11;17.20;99.90
62581;DHT22;48640;48.770;9.148;2022-10-16T07:41:38;17.30;99.90
62581;DHT22;48640;48.770;9.148;2022-10-16T07:44:04;17.30;99.90
62581;DHT22;48640;48.770;9.148;2022-10-16T07:46:32;17.30;99.90
62581;DHT22;48640;48.770;9.148;2022-10-16T07:49:01;17.40;99.90
62581;DHT22;48640;48.770;9.148;2022-10-16T07:51:29;17.40;99.90
62581;DHT22;48640;48.770;9.148;2022-10-16T07:53:56;17.50;99.90
62581;DHT22;48640;48.770;9.148;2022-10-16T07:56:23;17.50;99.90
62581;DHT22;48640;48.770;9.148;2022-10-16T07:58:50;17.50;99.90
62581;DHT22;48640;48.770;9.148;2022-10-16T08:01:17;17.50;99.90
62581;DHT22;48640;48.770;9.148;2022-10-16T08:03:45;17.50;99.90
62581;DHT22;48640;48.770;9.148;2022-10-16T08:06:13;17.50;99.90
62581;DHT22;48640;48.770;9.148;2022-10-16T08:08:41;17.60;99.90
62581;DHT22;48640;48.770;9.148;2022-10-16T08:11:08;17.60;99.90
62581;DHT22;48640;48.770;9.148;2022-10-16T08:13:35;17.70;99.90
62581;DHT22;48640;48.770;9.148;2022-10-16T08:16:02;17.90;99.90
62581;DHT22;48640;48.770;9.148;2022-10-16T08:18:33;18.00;99.90
62581;DHT22;48640;48.770;9.148;2022-10-16T08:21:01;18.20;99.90
62581;DHT22;48640;48.770;9.148;2022-10-16T08:23:28;18.50;99.90
62581;DHT22;48640;48.770;9.148;2022-10-16T08:26:02;18.90;99.90
62581;DHT22;48640;48.770;9.148;2022-10-16T08:28:29;19.30;98.80
62581;DHT22;48640;48.770;9.148;2022-10-16T08:31:04;19.40;98.40
62581;DHT22;48640;48.770;9.148;2022-10-16T08:33:30;19.30;98.20
62581;DHT22;48640;48.770;9.148;2022-10-16T08:35:57;19.30;98.20
62581;DHT22;48640;48.770;9.148;2022-10-16T08:38:24;19.40;98.40
62581;DHT22;48640;48.770;9.148;2022-10-16T08:40:51;19.50;98.10
62581;DHT22;48640;48.770;9.148;2022-10-16T08:43:44;19.60;97.80
62581;DHT22;48640;48.770;9.148;2022-10-16T08:46:24;19.50;97.50
62581;DHT22;48640;48.770;9.148;2022-10-16T08:48:54;19.50;97.70
62581;DHT22;48640;48.770;9.148;2022-10-16T08:51:24;19.20;97.60
62581;DHT22;48640;48.770;9.148;2022-10-16T08:53:54;19.10;98.10
62581;DHT22;48640;48.770;9.148;2022-10-16T08:56:22;19.00;98.30
62581;DHT22;48640;48.770;9.148;2022-10-16T08:58:52;18.90;99.10
62581;DHT22;48640;48.770;9.148;2022-10-16T09:01:19;18.90;99.00
62581;DHT22;48640;48.770;9.148;2022-10-16T09:04:37;18.80;99.00
62581;DHT22;48640;48.770;9.148;2022-10-16T09:07:13;18.90;98.70
62581;DHT22;48640;48.770;9.148;2022-10-16T09:09:53;19.10;98.40
62581;DHT22;48640;48.770;9.148;2022-10-16T09:12:24;19.30;98.20
62581;DHT22;48640;48.770;9.148;2022-10-16T09:15:02;19.40;97.90
62581;DHT22;48640;48.770;9.148;2022-10-16T09:17:42;19.70;97.80
62581;DHT22;48640;48.770;9.148;2022-10-16T09:20:36;20.00;97.20
62581;DHT22;48640;48.770;9.148;2022-10-16T09:23:14;20.20;96.70
62581;DHT22;48640;48.770;9.148;2022-10-16T09:25:44;20.30;96.00
62581;DHT22;48640;48.770;9.148;2022-10-16T09:28:11;20.50;95.40
62581;DHT22;48640;48.770;9.148;2022-10-16T09:30:39;20.50;94.80
62581;DHT22;48640;48.770;9.148;2022-10-16T09:33:08;20.50;94.70
62581;DHT22;48640;48.770;9.148;2022-10-16T09:35:37;20.40;94.70
62581;DHT22;48640;48.770;9.148;2022-10-16T09:38:06;20.70;95.10
62581;DHT22;48640;48.770;9.148;2022-10-16T09:40:35;20.70;94.40
62581;DHT22;48640;48.770;9.148;2022-10-16T09:43:20;20.40;94.30
62581;DHT22;48640;48.770;9.148;2022-10-16T09:45:57;20.30;94.80
62581;DHT22;48640;48.770;9.148;2022-10-16T09:48:27;20.20;94.70
62581;DHT22;48640;48.770;9.148;2022-10-16T09:50:59;20.10;94.80
62581;DHT22;48640;48.770;9.148;2022-10-16T09:53:37;20.40;94.90
62581;DHT22;48640;48.770;9.148;2022-10-16T09:56:05;20.90;94.80
62581;DHT22;48640;48.770;9.148;2022-10-16T09:58:32;21.40;94.00
62581;DHT22;48640;48.770;9.148;2022-10-16T10:01:00;21.60;92.80
62581;DHT22;48640;48.770;9.148;2022-10-16T10:03:36;21.80;92.50
62581;DHT22;48640;48.770;9.148;2022-10-16T10:06:14;21.80;90.90
62581;DHT22;48640;48.770;9.148;2022-10-16T10:08:53;21.90;90.60
62581;DHT22;48640;48.770;9.148;2022-10-16T10:11:36;21.90;90.50
62581;DHT22;48640;48.770;9.148;2022-10-16T10:14:06;22.00;90.70
62581;DHT22;48640;48.770;9.148;2022-10-16T10:16:36;22.20;89.80
62581;DHT22;48640;48.770;9.148;2022-10-16T10:19:03;22.40;91.90
62581;DHT22;48640;48.770;9.148;2022-10-16T10:21:32;22.60;91.10
62581;DHT22;48640;48.770;9.148;2022-10-16T10:24:00;22.70;91.90
62581;DHT22;48640;48.770;9.148;2022-10-16T10:26:28;22.80;88.70
62581;DHT22;48640;48.770;9.148;2022-10-16T10:29:01;22.90;86.90
62581;DHT22;48640;48.770;9.148;2022-10-16T10:31:38;23.10;86.70
62581;DHT22;48640;48.770;9.148;2022-10-16T10:34:20;23.40;85.50
62581;DHT22;48640;48.770;9.148;2022-10-16T10:36:55;23.70;83.30
62581;DHT22;48640;48.770;9.148;2022-10-16T10:39:29;24.20;82.00
62581;DHT22;48640;48.770;9.148;2022-10-16T10:42:16;24.80;80.80
62581;DHT22;48640;48.770;9.148;2022-10-16T10:44:57;25.10;77.00
62581;DHT22;48640;48.770;9.148;2022-10-16T10:47:40;25.30;76.80
62581;DHT22;48640;48.770;9.148;2022-10-16T10:50:18;25.50;77.70
62581;DHT22;48640;48.770;9.148;2022-10-16T10:52:56;26.30;71.30
62581;DHT22;48640;48.770;9.148;2022-10-16T10:55:29;27.20;67.40
62581;DHT22;48640;48.770;9.148;2022-10-16T11:00:55;28.20;60.40
62581;DHT22;48640;48.770;9.148;2022-10-16T11:03:51;28.50;59.10
62581;DHT22;48640;48.770;9.148;2022-10-16T11:06:26;28.00;55.00
62581;DHT22;48640;48.770;9.148;2022-10-16T11:08:59;27.40;57.40
62581;DHT22;48640;48.770;9.148;2022-10-16T11:11:33;27.00;61.20
62581;DHT22;48640;48.770;9.148;2022-10-16T11:14:05;26.50;59.10
62581;DHT22;48640;48.770;9.148;2022-10-16T11:16:37;26.20;59.40
62581;DHT22;48640;48.770;9.148;2022-10-16T11:19:12;25.30;59.50
62581;DHT22;48640;48.770;9.148;2022-10-16T11:21:46;25.00;63.30
62581;DHT22;48640;48.770;9.148;2022-10-16T11:24:20;24.70;67.40
62581;DHT22;48640;48.770;9.148;2022-10-16T11:26:50;24.90;66.10
62581;DHT22;48640;48.770;9.148;2022-10-16T11:29:23;25.10;69.90
62581;DHT22;48640;48.770;9.148;2022-10-16T11:31:55;25.20;63.40
62581;DHT22;48640;48.770;9.148;2022-10-16T11:34:29;25.60;65.00
62581;DHT22;48640;48.770;9.148;2022-10-16T11:37:03;25.50;62.40
62581;DHT22;48640;48.770;9.148;2022-10-16T11:39:32;25.70;61.20
62581;DHT22;48640;48.770;9.148;2022-10-16T11:42:04;25.90;60.10
62581;DHT22;48640;48.770;9.148;2022-10-16T11:44:51;26.20;59.50
62581;DHT22;48640;48.770;9.148;2022-10-16T11:47:26;26.70;57.80
62581;DHT22;48640;48.770;9.148;2022-10-16T11:49:59;26.90;56.40
62581;DHT22;48640;48.770;9.148;2022-10-16T11:52:33;27.30;57.90
62581;DHT22;48640;48.770;9.148;2022-10-16T11:55:09;27.70;55.10
62581;DHT22;48640;48.770;9.148;2022-10-16T11:57:42;27.90;53.40
62581;DHT22;48640;48.770;9.148;2022-10-16T12:00:21;27.80;54.00
62581;DHT22;48640;48.770;9.148;2022-10-16T12:02:58;27.80;54.20
62581;DHT22;48640;48.770;9.148;2022-10-16T12:05:35;28.20;54.60
62581;DHT22;48640;48.770;9.148;2022-10-16T12:08:09;28.30;53.30
62581;DHT22;48640;48.770;9.148;2022-10-16T12:10:37;28.20;52.80
62581;DHT22;48640;48.770;9.148;2022-10-16T12:13:05;28.10;53.20
62581;DHT22;48640;48.770;9.148;2022-10-16T12:15:51;27.90;53.60
62581;DHT22;48640;48.770;9.148;2022-10-16T12:18:22;27.80;53.20
62581;DHT22;48640;48.770;9.148;2022-10-16T12:20:56;27.30;53.40
62581;DHT22;48640;48.770;9.148;2022-10-16T12:23:25;27.60;53.50
62581;DHT22;48640;48.770;9.148;2022-10-16T12:25:54;27.50;56.50
62581;DHT22;48640;48.770;9.148;2022-10-16T12:28:26;27.90;54.60
62581;DHT22;48640;48.770;9.148;2022-10-16T12:30:55;27.80;53.40
62581;DHT22;48640;48.770;9.148;2022-10-16T12:33:24;27.10;55.20
62581;DHT22;48640;48.770;9.148;2022-10-16T12:35:51;26.50;57.00
62581;DHT22;48640;48.770;9.148;2022-10-16T12:38:24;26.20;57.20
62581;DHT22;48640;48.770;9.148;2022-10-16T12:40:57;25.90;58.40
62581;DHT22;48640;48.770;9.148;2022-10-16T12:43:37;26.10;59.20
62581;DHT22;48640;48.770;9.148;2022-10-16T12:46:21;26.60;57.10
62581;DHT22;48640;48.770;9.148;2022-10-16T12:48:48;26.70;57.30
62581;DHT22;48640;48.770;9.148;2022-10-16T12:51:24;26.50;57.50
62581;DHT22;48640;48.770;9.148;2022-10-16T12:54:03;26.10;56.70
62581;DHT22;48640;48.770;9.148;2022-10-16T12:56:40;25.70;60.10
62581;DHT22;48640;48.770;9.148;2022-10-16T12:59:16;25.50;63.90
62581;DHT22;48640;48.770;9.148;2022-10-16T13:02:00;25.20;66.30
62581;DHT22;48640;48.770;9.148;2022-10-16T13:04:43;24.80;68.90
62581;DHT22;48640;48.770;9.148;2022-10-16T13:07:25;24.60;70.20
62581;DHT22;48640;48.770;9.148;2022-10-16T13:10:06;24.40;69.60
62581;DHT22;48640;48.770;9.148;2022-10-16T13:12:51;23.90;63.70
62581;DHT22;48640;48.770;9.148;2022-10-16T13:18:15;23.60;75.30
62581;DHT22;48640;48.770;9.148;2022-10-16T13:20:55;23.60;76.60
62581;DHT22;48640;48.770;9.148;2022-10-16T13:23:27;23.60;76.60
62581;DHT22;48640;48.770;9.148;2022-10-16T13:26:09;23.50;71.60
62581;DHT22;48640;48.770;9.148;2022-10-16T13:28:38;23.60;78.60
62581;DHT22;48640;48.770;9.148;2022-10-16T13:31:13;23.60;78.90
62581;DHT22;48640;48.770;9.148;2022-10-16T13:33:45;23.70;78.40
62581;DHT22;48640;48.770;9.148;2022-10-16T13:36:19;23.50;76.60
62581;DHT22;48640;48.770;9.148;2022-10-16T13:38:46;23.50;77.30
62581;DHT22;48640;48.770;9.148;2022-10-16T13:41:17;23.40;77.30
62581;DHT22;48640;48.770;9.148;2022-10-16T13:43:46;23.40;79.50
62581;DHT22;48640;48.770;9.148;2022-10-16T13:46:15;23.60;81.40
62581;DHT22;48640;48.770;9.148;2022-10-16T13:48:43;23.60;80.50
62581;DHT22;48640;48.770;9.148;2022-10-16T13:51:13;23.60;79.00
62581;DHT22;48640;48.770;9.148;2022-10-16T13:53:40;23.60;74.50
62581;DHT22;48640;48.770;9.148;2022-10-16T13:56:11;23.50;74.10
62581;DHT22;48640;48.770;9.148;2022-10-16T13:58:40;23.30;77.80
62581;DHT22;48640;48.770;9.148;2022-10-16T14:01:16;23.30;79.80
62581;DHT22;48640;48.770;9.148;2022-10-16T14:03:45;23.00;82.50
62581;DHT22;48640;48.770;9.148;2022-10-16T14:06:14;23.00;83.10
62581;DHT22;48640;48.770;9.148;2022-10-16T14:08:44;23.00;84.80
62581;DHT22;48640;48.770;9.148;2022-10-16T14:11:12;22.80;85.00
62581;DHT22;48640;48.770;9.148;2022-10-16T14:13:44;22.80;86.30
62581;DHT22;48640;48.770;9.148;2022-10-16T14:16:17;22.60;86.60
62581;DHT22;48640;48.770;9.148;2022-10-16T14:18:46;22.60;87.40
62581;DHT22;48640;48.770;9.148;2022-10-16T14:21:16;22.70;87.40
62581;DHT22;48640;48.770;9.148;2022-10-16T14:23:43;22.70;88.20
62581;DHT22;48640;48.770;9.148;2022-10-16T14:26:18;22.70;88.70
62581;DHT22;48640;48.770;9.148;2022-10-16T14:28:48;22.60;88.00
62581;DHT22;48640;48.770;9.148;2022-10-16T14:34:03;22.60;89.20
62581;DHT22;48640;48.770;9.148;2022-10-16T14:36:30;22.60;90.30
62581;DHT22;48640;48.770;9.148;2022-10-16T14:39:01;22.50;90.70
62581;DHT22;48640;48.770;9.148;2022-10-16T14:41:29;22.60;90.80
62581;DHT22;48640;48.770;9.148;2022-10-16T14:44:01;22.60;90.20
62581;DHT22;48640;48.770;9.148;2022-10-16T14:46:33;22.40;90.90
62581;DHT22;48640;48.770;9.148;2022-10-16T14:49:03;22.30;91.70
62581;DHT22;48640;48.770;9.148;2022-10-16T14:51:31;22.30;92.00
62581;DHT22;48640;48.770;9.148;2022-10-16T14:53:58;22.40;92.10
62581;DHT22;48640;48.770;9.148;2022-10-16T14:56:29;22.40;92.10
62581;DHT22;48640;48.770;9.148;2022-10-16T14:58:57;22.20;92.00
62581;DHT22;48640;48.770;9.148;2022-10-16T15:01:24;22.20;92.80
62581;DHT22;48640;48.770;9.148;2022-10-16T15:03:51;22.20;93.20
62581;DHT22;48640;48.770;9.148;2022-10-16T15:06:20;22.00;93.40
62581;DHT22;48640;48.770;9.148;2022-10-16T15:08:47;22.00;93.90
62581;DHT22;48640;48.770;9.148;2022-10-16T15:11:16;21.80;94.10
62581;DHT22;48640;48.770;9.148;2022-10-16T15:13:45;21.80;94.60
62581;DHT22;48640;48.770;9.148;2022-10-16T15:16:14;21.70;94.80
62581;DHT22;48640;48.770;9.148;2022-10-16T15:18:42;21.60;95.00
62581;DHT22;48640;48.770;9.148;2022-10-16T15:21:15;21.60;94.70
62581;DHT22;48640;48.770;9.148;2022-10-16T15:23:48;21.50;94.60
62581;DHT22;48640;48.770;9.148;2022-10-16T15:26:15;21.40;95.00
62581;DHT22;48640;48.770;9.148;2022-10-16T15:28:42;21.30;94.20
62581;DHT22;48640;48.770;9.148;2022-10-16T15:31:09;21.30;95.20
62581;DHT22;48640;48.770;9.148;2022-10-16T15:33:37;21.20;95.00
62581;DHT22;48640;48.770;9.148;2022-10-16T15:36:04;21.10;94.80
62581;DHT22;48640;48.770;9.148;2022-10-16T15:38:31;21.10;94.90
62581;DHT22;48640;48.770;9.148;2022-10-16T15:40:58;20.90;95.40
62581;DHT22;48640;48.770;9.148;2022-10-16T15:43:25;20.80;94.90
62581;DHT22;48640;48.770;9.148;2022-10-16T15:46:00;20.80;95.10
62581;DHT22;48640;48.770;9.148;2022-10-16T15:48:28;20.90;95.20
62581;DHT22;48640;48.770;9.148;2022-10-16T15:50:56;20.80;95.90
62581;DHT22;48640;48.770;9.148;2022-10-16T15:53:23;20.80;95.80
62581;DHT22;48640;48.770;9.148;2022-10-16T15:55:50;20.70;95.80
62581;DHT22;48640;48.770;9.148;2022-10-16T15:58:17;20.60;95.90
62581;DHT22;48640;48.770;9.148;2022-10-16T16:00:44;20.60;95.90